Terminal Aerodrome Forecast
Issued by NWS

Home | Current Version | Previous Version | Text Only | Print | Product List | Glossary On
Versions: 1 2 3 4 5 6 7 8 9 10 11 12 13 14 15 16 17
644
FTUS41 KBGM 222322
TAFITH
TAF
KITH 222322Z 2300/2324 32005KT P6SM BKN060
     FM230100 32005KT P6SM SCT150=

USA.gov is the U.S. government's official web portal to all federal, state and local government web resources and services.